Time;durP1;ratioP1;P1;durP2;ratioP2;P2;SDS_P1;SDS_P2;PMS_P1;PMS_P2;Temp;Humidity;BMP_temperature;BMP_pressure;BME280_temperature;BME280_humidity;BME280_pressure;Samples;Min_cycle;Max_cycle;Signal;HPM_P1;HPM_P2
2023/06/20 00:01:17;;;;;;;10.02;5.35;;;18.70;99.90;;;;;;5038770;28;20138;-75
2023/06/20 00:03:43;;;;;;;11.80;5.57;;;18.80;99.90;;;;;;5026941;28;20048;-77
2023/06/20 00:06:09;;;;;;;12.02;5.78;;;18.80;99.90;;;;;;5026534;28;20033;-77
2023/06/20 00:08:34;;;;;;;11.13;5.25;;;18.70;99.90;;;;;;5062255;28;20044;-74
2023/06/20 00:11:00;;;;;;;9.35;5.53;;;18.80;99.90;;;;;;5066981;28;20052;-77
2023/06/20 00:13:25;;;;;;;12.82;4.88;;;18.70;99.90;;;;;;5067562;28;20390;-76
2023/06/20 00:15:51;;;;;;;11.40;6.63;;;18.70;99.90;;;;;;5064646;28;20067;-74
2023/06/20 00:18:17;;;;;;;10.82;5.05;;;18.70;99.90;;;;;;5066298;28;20041;-77
2023/06/20 00:20:46;;;;;;;7.85;5.25;;;18.70;99.90;;;;;;5065041;28;20052;-77
2023/06/20 00:23:12;;;;;;;9.88;5.60;;;18.70;99.90;;;;;;5066496;28;20044;-76
2023/06/20 00:25:37;;;;;;;12.48;6.07;;;18.60;99.90;;;;;;5066717;28;20115;-76
2023/06/20 00:28:03;;;;;;;11.05;5.63;;;18.60;99.90;;;;;;5066057;28;20115;-76
2023/06/20 00:30:29;;;;;;;12.10;5.03;;;18.50;99.90;;;;;;5064287;28;20040;-77
2023/06/20 00:32:58;;;;;;;12.80;5.80;;;18.50;99.90;;;;;;5066965;28;20492;-75
2023/06/20 00:35:24;;;;;;;8.48;5.18;;;18.50;99.90;;;;;;5064434;28;20041;-76
2023/06/20 00:37:50;;;;;;;10.10;4.82;;;18.50;99.90;;;;;;5065895;28;20055;-75
2023/06/20 00:40:16;;;;;;;10.75;5.85;;;18.50;99.90;;;;;;5066114;28;20041;-76
2023/06/20 00:42:41;;;;;;;11.68;5.55;;;18.50;99.90;;;;;;5064711;28;20101;-77
2023/06/20 00:45:32;;;;;;;10.10;5.07;;;18.40;99.90;;;;;;5063461;28;20456;-76
2023/06/20 00:48:03;;;;;;;8.80;5.38;;;18.40;99.90;;;;;;5059627;28;20071;-76
2023/06/20 00:50:30;;;;;;;12.60;6.22;;;18.30;99.90;;;;;;5066275;28;20045;-76
2023/06/20 00:53:06;;;;;;;12.63;6.43;;;18.40;99.90;;;;;;5066405;28;20075;-76
2023/06/20 00:55:33;;;;;;;10.38;5.68;;;18.40;99.90;;;;;;5065935;28;20052;-75
2023/06/20 00:58:01;;;;;;;11.32;6.00;;;18.40;99.90;;;;;;5064608;28;20123;-74
2023/06/20 01:00:29;;;;;;;13.15;6.25;;;18.30;99.90;;;;;;5054494;28;20049;-74
2023/06/20 01:03:00;;;;;;;11.35;5.28;;;18.30;99.90;;;;;;5026857;28;20075;-74
2023/06/20 01:05:28;;;;;;;10.55;5.55;;;18.40;99.90;;;;;;5024521;28;20085;-75
2023/06/20 01:08:14;;;;;;;9.98;5.72;;;18.30;99.90;;;;;;5025816;28;20128;-76
2023/06/20 01:10:50;;;;;;;11.73;5.82;;;18.30;99.90;;;;;;5007941;28;20045;-76
2023/06/20 01:13:48;;;;;;;9.85;6.28;;;18.30;99.90;;;;;;5025729;28;20041;-73
2023/06/20 01:16:25;;;;;;;9.43;5.30;;;18.30;99.90;;;;;;5023072;28;20496;-77
2023/06/20 01:18:59;;;;;;;13.57;5.85;;;18.30;99.90;;;;;;5025311;28;20522;-75
2023/06/20 01:21:46;;;;;;;16.45;7.13;;;18.30;99.90;;;;;;5034027;28;20132;-76
2023/06/20 01:24:29;;;;;;;12.07;6.38;;;18.30;99.90;;;;;;5045281;28;20435;-76
2023/06/20 01:27:10;;;;;;;11.60;5.88;;;18.30;99.90;;;;;;5044263;28;20049;-76
2023/06/20 01:29:40;;;;;;;12.32;6.22;;;18.30;99.90;;;;;;5043071;28;20123;-76
2023/06/20 01:32:12;;;;;;;12.43;5.95;;;18.30;99.90;;;;;;5044045;28;20068;-76
2023/06/20 01:34:46;;;;;;;12.05;6.25;;;18.30;99.90;;;;;;5045203;28;20079;-76
2023/06/20 01:37:16;;;;;;;11.13;5.53;;;18.30;99.90;;;;;;5044648;28;20519;-75
2023/06/20 01:39:53;;;;;;;13.57;6.32;;;18.30;99.90;;;;;;5045022;28;20492;-76
2023/06/20 01:42:23;;;;;;;13.57;6.88;;;18.30;99.90;;;;;;5043835;28;20520;-76
2023/06/20 01:44:52;;;;;;;12.95;6.07;;;18.30;99.90;;;;;;5026675;28;20395;-77
2023/06/20 01:47:19;;;;;;;12.85;6.63;;;18.20;99.90;;;;;;5044799;28;20041;-77
2023/06/20 01:49:48;;;;;;;16.67;6.78;;;18.20;99.90;;;;;;5045428;28;20037;-77
2023/06/20 01:52:16;;;;;;;15.55;7.55;;;18.20;99.90;;;;;;5048589;28;20036;-75
2023/06/20 01:54:46;;;;;;;9.93;5.95;;;18.20;99.90;;;;;;5064737;28;20040;-74
2023/06/20 01:57:13;;;;;;;11.68;6.53;;;18.20;99.90;;;;;;5064854;28;20120;-73
2023/06/20 01:59:41;;;;;;;11.57;7.53;;;18.20;99.90;;;;;;5062687;28;20052;-77
2023/06/20 02:02:07;;;;;;;14.50;7.25;;;18.20;99.90;;;;;;5051726;28;20491;-76
2023/06/20 02:04:34;;;;;;;15.50;6.78;;;18.20;99.90;;;;;;5044583;28;20060;-76
2023/06/20 02:07:02;;;;;;;12.05;6.45;;;18.20;99.90;;;;;;5043088;28;20124;-75
2023/06/20 02:09:28;;;;;;;14.05;6.65;;;18.20;99.90;;;;;;5044956;28;20056;-74
2023/06/20 02:11:55;;;;;;;15.52;7.20;;;18.20;99.90;;;;;;5043398;28;20046;-76
2023/06/20 02:14:20;;;;;;;12.32;5.78;;;18.20;99.90;;;;;;5043614;28;20044;-76
2023/06/20 02:16:49;;;;;;;12.32;6.05;;;18.20;99.90;;;;;;5044398;28;20040;-76
2023/06/20 02:19:15;;;;;;;9.50;6.30;;;18.20;99.90;;;;;;5044364;28;20040;-77
2023/06/20 02:21:43;;;;;;;14.85;7.03;;;18.20;99.90;;;;;;5044125;28;20037;-75
2023/06/20 02:24:12;;;;;;;12.50;6.05;;;18.20;99.90;;;;;;5024093;28;20040;-76
2023/06/20 02:26:42;;;;;;;14.13;7.65;;;18.20;99.90;;;;;;5023108;28;20049;-76
2023/06/20 02:29:09;;;;;;;12.60;7.15;;;18.20;99.90;;;;;;5023407;28;20065;-74
2023/06/20 02:31:45;;;;;;;14.85;6.93;;;18.20;99.90;;;;;;5022944;28;20120;-76
2023/06/20 02:34:14;;;;;;;12.75;7.45;;;18.20;99.90;;;;;;5024576;28;20065;-77
2023/06/20 02:36:43;;;;;;;13.60;6.25;;;18.20;99.90;;;;;;5024186;28;20056;-74
2023/06/20 02:39:08;;;;;;;10.50;5.97;;;18.20;99.90;;;;;;5026248;28;20041;-76
2023/06/20 02:41:34;;;;;;;16.80;8.68;;;18.20;99.90;;;;;;5028772;28;20039;-77
2023/06/20 02:43:59;;;;;;;12.02;5.93;;;18.20;99.90;;;;;;5061505;28;20119;-75
2023/06/20 02:46:45;;;;;;;14.50;6.85;;;18.20;99.90;;;;;;5068998;28;20058;-75
2023/06/20 02:49:40;;;;;;;12.98;6.90;;;18.30;99.90;;;;;;5067313;28;20588;-75
2023/06/20 02:52:08;;;;;;;13.55;6.82;;;18.30;99.90;;;;;;5037798;28;20132;-76
2023/06/20 02:55:15;;;;;;;13.63;5.97;;;18.30;99.90;;;;;;5066880;28;20059;-76
2023/06/20 02:57:53;;;;;;;12.40;6.32;;;18.30;99.90;;;;;;5050635;28;20056;-77
2023/06/20 03:00:19;;;;;;;13.60;6.15;;;18.30;99.90;;;;;;5066210;28;20394;-74
2023/06/20 03:02:53;;;;;;;12.52;5.40;;;18.30;99.90;;;;;;5050412;28;20049;-76
2023/06/20 03:05:22;;;;;;;10.63;6.30;;;18.30;99.90;;;;;;5046476;28;20053;-74
2023/06/20 03:07:48;;;;;;;10.48;6.30;;;18.30;99.90;;;;;;5046713;28;20056;-76
2023/06/20 03:10:14;;;;;;;11.05;6.13;;;18.30;99.90;;;;;;5047485;28;20045;-75
2023/06/20 03:12:40;;;;;;;9.70;6.20;;;18.30;99.90;;;;;;5052733;28;20059;-76
2023/06/20 03:15:06;;;;;;;10.82;4.97;;;18.30;99.90;;;;;;5066801;28;20033;-76
2023/06/20 03:17:35;;;;;;;10.95;5.18;;;18.30;99.90;;;;;;5067431;28;20047;-76
2023/06/20 03:20:06;;;;;;;9.82;5.22;;;18.30;99.90;;;;;;5066048;28;20161;-76
2023/06/20 03:22:31;;;;;;;8.33;4.77;;;18.30;99.90;;;;;;5067224;28;20546;-77
2023/06/20 03:24:57;;;;;;;10.50;5.43;;;18.30;99.90;;;;;;5066280;28;20293;-75
2023/06/20 03:27:22;;;;;;;6.60;4.60;;;18.30;99.90;;;;;;5066042;28;20564;-74
2023/06/20 03:29:48;;;;;;;10.90;5.57;;;18.30;99.90;;;;;;5066788;28;20128;-73
2023/06/20 03:32:14;;;;;;;8.80;5.30;;;18.30;99.90;;;;;;5067211;28;20052;-76
2023/06/20 03:34:39;;;;;;;9.38;5.28;;;18.30;99.90;;;;;;5067490;28;20036;-77
2023/06/20 03:37:05;;;;;;;9.23;4.75;;;18.30;99.90;;;;;;5065876;28;20123;-76
2023/06/20 03:39:30;;;;;;;10.48;4.68;;;18.30;99.90;;;;;;5067231;28;20046;-76
2023/06/20 03:41:56;;;;;;;9.57;4.10;;;18.30;99.90;;;;;;5066269;28;20371;-77
2023/06/20 03:44:21;;;;;;;8.30;4.55;;;18.30;99.90;;;;;;5064549;28;20059;-76
2023/06/20 03:46:47;;;;;;;10.43;4.80;;;18.30;99.90;;;;;;5065921;28;20106;-76
2023/06/20 03:49:12;;;;;;;9.13;4.60;;;18.30;99.90;;;;;;5065344;28;20487;-76
2023/06/20 03:51:39;;;;;;;11.07;4.85;;;18.30;99.90;;;;;;5067279;28;20311;-76
2023/06/20 03:54:04;;;;;;;8.20;4.10;;;18.30;99.90;;;;;;5066806;28;20047;-76
2023/06/20 03:56:30;;;;;;;8.95;4.80;;;18.30;99.90;;;;;;5066689;28;20037;-75
2023/06/20 03:58:55;;;;;;;8.68;4.50;;;18.30;99.90;;;;;;5066759;28;20162;-74
2023/06/20 04:01:24;;;;;;;6.63;3.55;;;18.30;99.90;;;;;;5059351;28;20487;-76
2023/06/20 04:03:51;;;;;;;7.93;3.80;;;18.30;99.90;;;;;;5045324;28;20053;-73
2023/06/20 04:06:16;;;;;;;5.93;2.95;;;18.30;99.90;;;;;;5058137;28;20052;-76
2023/06/20 04:08:42;;;;;;;11.93;4.22;;;18.30;99.90;;;;;;5066686;28;20033;-76
2023/06/20 04:11:08;;;;;;;8.65;3.83;;;18.30;99.90;;;;;;5066255;28;20547;-76
2023/06/20 04:13:33;;;;;;;6.63;3.63;;;18.30;99.90;;;;;;5052439;28;20123;-75
2023/06/20 04:15:59;;;;;;;7.35;4.00;;;18.30;99.90;;;;;;5046479;28;20138;-74
2023/06/20 04:18:25;;;;;;;7.57;3.90;;;18.30;99.90;;;;;;5045716;28;20518;-77
2023/06/20 04:20:50;;;;;;;9.75;4.47;;;18.30;99.90;;;;;;5045043;28;20044;-76
2023/06/20 04:23:16;;;;;;;8.00;4.60;;;18.30;99.90;;;;;;5046374;28;20124;-74
2023/06/20 04:25:41;;;;;;;8.02;4.72;;;18.30;99.90;;;;;;5046841;28;20055;-76
2023/06/20 04:28:07;;;;;;;8.27;3.50;;;18.30;99.90;;;;;;5044855;28;20052;-76
2023/06/20 04:30:32;;;;;;;5.90;3.20;;;18.40;99.90;;;;;;5045659;28;20041;-79
2023/06/20 04:32:58;;;;;;;5.20;3.38;;;18.40;99.90;;;;;;5047032;28;20365;-78
2023/06/20 04:35:24;;;;;;;6.65;3.85;;;18.40;99.90;;;;;;5045193;28;20392;-78
2023/06/20 04:37:51;;;;;;;8.50;3.70;;;18.40;99.90;;;;;;5046239;28;20088;-77
2023/06/20 04:40:17;;;;;;;10.43;3.40;;;18.40;99.90;;;;;;5045990;28;20119;-77
2023/06/20 04:42:45;;;;;;;7.80;3.63;;;18.40;99.90;;;;;;5027506;28;20051;-77
2023/06/20 04:45:10;;;;;;;7.60;4.38;;;18.50;99.90;;;;;;5044139;28;20033;-78
2023/06/20 04:47:36;;;;;;;9.95;4.38;;;18.50;99.90;;;;;;5044549;28;20605;-75
2023/06/20 04:50:03;;;;;;;8.25;4.30;;;18.50;99.90;;;;;;5045420;28;20479;-78
2023/06/20 04:52:30;;;;;;;7.32;3.47;;;18.50;99.90;;;;;;5046387;28;20102;-78
2023/06/20 04:55:02;;;;;;;9.57;3.25;;;18.50;99.90;;;;;;5046536;28;20059;-79
2023/06/20 04:57:29;;;;;;;5.32;3.22;;;18.50;99.90;;;;;;5051933;28;20044;-78
2023/06/20 04:59:55;;;;;;;9.35;3.38;;;18.50;99.90;;;;;;5064256;28;20048;-78
2023/06/20 05:02:20;;;;;;;6.03;3.80;;;18.50;99.90;;;;;;5050751;28;20479;-76
2023/06/20 05:04:46;;;;;;;6.45;3.45;;;18.50;99.90;;;;;;5055835;28;20493;-77
2023/06/20 05:07:12;;;;;;;5.78;3.05;;;18.60;99.90;;;;;;5044508;28;20049;-78
2023/06/20 05:09:37;;;;;;;8.48;3.15;;;18.50;99.90;;;;;;5045919;28;20045;-78
2023/06/20 05:12:03;;;;;;;7.10;3.45;;;18.60;99.90;;;;;;5045356;28;20055;-77
2023/06/20 05:14:29;;;;;;;6.80;3.50;;;18.60;99.90;;;;;;5043878;28;20116;-77
2023/06/20 05:16:54;;;;;;;6.82;3.97;;;18.60;99.90;;;;;;5056213;28;20047;-78
2023/06/20 05:19:20;;;;;;;7.88;3.95;;;18.60;99.90;;;;;;5045881;28;20491;-77
2023/06/20 05:21:45;;;;;;;7.20;3.65;;;18.60;99.90;;;;;;5026990;28;20064;-78
2023/06/20 05:24:11;;;;;;;5.47;3.38;;;18.70;99.90;;;;;;5043766;28;20045;-77
2023/06/20 05:26:36;;;;;;;6.82;4.30;;;18.70;99.90;;;;;;5045443;28;20080;-77
2023/06/20 05:29:03;;;;;;;5.97;3.63;;;18.70;99.90;;;;;;5042700;28;20088;-77
2023/06/20 05:31:29;;;;;;;7.10;4.05;;;18.70;99.90;;;;;;5045604;28;20045;-76
2023/06/20 05:33:55;;;;;;;7.68;4.18;;;18.70;99.90;;;;;;5045219;28;20051;-77
2023/06/20 05:36:20;;;;;;;7.63;3.90;;;18.70;99.90;;;;;;5044822;28;20036;-77
2023/06/20 05:38:49;;;;;;;7.40;4.13;;;18.70;99.90;;;;;;5045186;28;20067;-78
2023/06/20 05:41:16;;;;;;;7.82;3.20;;;18.80;99.90;;;;;;5026944;28;20051;-76
2023/06/20 05:43:42;;;;;;;6.28;3.90;;;18.80;99.90;;;;;;5043088;28;20067;-78
2023/06/20 05:46:08;;;;;;;11.65;4.20;;;18.80;99.90;;;;;;5044912;28;20036;-79
2023/06/20 05:48:34;;;;;;;7.93;4.07;;;18.80;99.90;;;;;;5054518;28;20037;-79
2023/06/20 05:51:00;;;;;;;9.15;4.45;;;18.80;99.90;;;;;;5049261;28;20051;-75
2023/06/20 05:53:27;;;;;;;8.18;4.32;;;18.80;99.90;;;;;;5035456;28;20041;-77
2023/06/20 05:55:52;;;;;;;7.43;3.67;;;18.80;99.90;;;;;;5041237;28;20517;-77
2023/06/20 05:58:19;;;;;;;7.35;4.40;;;18.80;99.90;;;;;;5044667;28;20040;-78
2023/06/20 06:00:45;;;;;;;7.63;3.92;;;18.90;99.90;;;;;;5045082;28;20033;-78
2023/06/20 06:03:14;;;;;;;8.23;4.30;;;18.80;99.90;;;;;;5039576;28;20052;-78
2023/06/20 06:05:41;;;;;;;7.15;3.58;;;18.90;99.90;;;;;;5056205;28;20377;-75
2023/06/20 06:08:06;;;;;;;7.40;3.92;;;18.90;99.90;;;;;;5050765;28;20044;-78
2023/06/20 06:10:32;;;;;;;6.22;3.30;;;18.90;99.90;;;;;;5046411;28;20454;-76
2023/06/20 06:12:58;;;;;;;7.57;3.78;;;18.90;99.90;;;;;;5052213;28;20041;-77
2023/06/20 06:15:24;;;;;;;5.88;3.60;;;18.90;99.90;;;;;;5044209;28;20047;-78
2023/06/20 06:17:49;;;;;;;5.88;3.70;;;18.90;99.90;;;;;;5042404;28;20411;-77
2023/06/20 06:20:18;;;;;;;6.63;3.95;;;18.90;99.90;;;;;;5043653;28;20045;-76
2023/06/20 06:22:43;;;;;;;8.15;3.72;;;18.90;99.90;;;;;;5044053;28;20049;-77
2023/06/20 06:25:09;;;;;;;8.00;4.22;;;18.90;99.90;;;;;;5042997;28;20049;-77
2023/06/20 06:27:35;;;;;;;7.78;4.32;;;18.90;99.90;;;;;;5046297;28;20099;-77
2023/06/20 06:30:01;;;;;;;6.22;3.80;;;18.90;99.90;;;;;;5029713;28;20037;-77
2023/06/20 06:32:27;;;;;;;8.07;4.55;;;19.00;99.90;;;;;;5058324;28;20090;-77
2023/06/20 06:34:54;;;;;;;6.38;3.70;;;19.00;99.90;;;;;;5044411;28;20060;-75
2023/06/20 06:37:21;;;;;;;6.03;3.90;;;19.00;99.90;;;;;;5062197;28;20048;-76
2023/06/20 06:39:47;;;;;;;7.35;4.57;;;19.00;99.90;;;;;;5060986;28;20517;-76
2023/06/20 06:42:12;;;;;;;6.30;4.35;;;19.00;99.90;;;;;;5042173;28;20045;-77
2023/06/20 06:44:38;;;;;;;10.18;4.45;;;19.10;99.90;;;;;;5062558;28;20025;-76
2023/06/20 06:47:04;;;;;;;6.32;4.20;;;19.10;99.90;;;;;;5062035;28;20128;-78
2023/06/20 06:49:31;;;;;;;8.15;4.43;;;19.10;99.90;;;;;;5060805;28;20044;-78
2023/06/20 06:51:56;;;;;;;6.97;4.55;;;19.20;99.90;;;;;;5062011;28;20108;-74
2023/06/20 06:54:22;;;;;;;10.82;4.57;;;19.20;99.90;;;;;;5025847;28;20120;-76
2023/06/20 06:56:48;;;;;;;6.50;4.28;;;19.30;99.90;;;;;;5043705;28;20052;-76
2023/06/20 06:59:13;;;;;;;11.35;5.15;;;19.30;99.90;;;;;;5042176;28;20487;-75
2023/06/20 07:01:39;;;;;;;8.73;4.97;;;19.40;99.90;;;;;;5055094;28;20445;-76
2023/06/20 07:04:05;;;;;;;11.07;4.55;;;19.40;99.90;;;;;;5049037;28;20142;-76
2023/06/20 07:06:31;;;;;;;10.10;5.25;;;19.50;99.90;;;;;;5053512;28;20045;-75
2023/06/20 07:08:56;;;;;;;8.07;3.83;;;19.60;99.90;;;;;;5060186;28;20053;-77
2023/06/20 07:11:22;;;;;;;6.78;4.68;;;19.50;99.90;;;;;;5063516;28;20044;-76
2023/06/20 07:13:48;;;;;;;9.60;4.55;;;19.60;99.90;;;;;;5047773;28;20041;-75
2023/06/20 07:16:13;;;;;;;8.13;4.53;;;19.60;99.90;;;;;;5054478;28;20067;-75
2023/06/20 07:18:39;;;;;;;9.35;5.20;;;19.70;99.90;;;;;;5061279;28;20040;-75
2023/06/20 07:21:05;;;;;;;9.35;4.70;;;19.70;99.90;;;;;;5061086;28;20048;-75
2023/06/20 07:23:32;;;;;;;9.75;5.45;;;19.80;99.90;;;;;;5063299;28;20048;-75
2023/06/20 07:25:58;;;;;;;7.80;4.88;;;19.80;99.90;;;;;;5065303;28;20139;-75
2023/06/20 07:28:25;;;;;;;8.73;5.43;;;19.80;99.90;;;;;;5065021;28;20080;-74
2023/06/20 07:30:50;;;;;;;11.15;5.93;;;19.90;99.90;;;;;;5064839;28;20240;-75
2023/06/20 07:33:16;;;;;;;9.15;5.85;;;19.90;99.90;;;;;;5066216;28;20235;-75
2023/06/20 07:35:42;;;;;;;8.60;4.82;;;20.00;99.90;;;;;;5066177;28;20361;-75
2023/06/20 07:38:07;;;;;;;8.60;5.03;;;20.00;99.90;;;;;;5066505;28;20036;-75
2023/06/20 07:40:33;;;;;;;7.72;5.45;;;20.10;99.90;;;;;;5066322;28;20114;-75
2023/06/20 07:42:58;;;;;;;9.05;5.50;;;20.10;99.90;;;;;;5066373;28;20041;-75
2023/06/20 07:45:24;;;;;;;9.20;5.47;;;20.20;99.90;;;;;;5064575;28;20057;-75
2023/06/20 07:47:49;;;;;;;8.93;5.95;;;20.30;99.90;;;;;;5065136;28;20496;-75
2023/06/20 07:50:15;;;;;;;10.05;5.90;;;20.30;99.90;;;;;;5065428;28;20052;-75
2023/06/20 07:52:41;;;;;;;7.88;5.13;;;20.40;99.90;;;;;;5066024;28;20071;-75
2023/06/20 07:55:07;;;;;;;8.82;5.30;;;20.40;99.90;;;;;;5065948;28;20438;-75
2023/06/20 07:57:32;;;;;;;9.02;5.72;;;20.50;99.90;;;;;;5064490;28;20036;-75
2023/06/20 07:59:58;;;;;;;10.60;6.10;;;20.50;99.90;;;;;;5064293;28;20036;-75
2023/06/20 08:02:24;;;;;;;8.90;6.20;;;20.60;99.90;;;;;;5049579;28;20391;-75
2023/06/20 08:04:49;;;;;;;7.78;5.30;;;20.70;99.90;;;;;;5045451;28;20131;-75
2023/06/20 08:07:15;;;;;;;8.93;5.70;;;20.70;99.90;;;;;;5045207;28;20462;-75
2023/06/20 08:09:41;;;;;;;9.95;5.72;;;20.70;99.90;;;;;;5045787;28;20041;-75
2023/06/20 08:12:08;;;;;;;10.07;6.20;;;20.80;99.90;;;;;;5045331;28;20491;-75
2023/06/20 08:14:33;;;;;;;8.60;5.68;;;20.80;99.90;;;;;;5044735;28;20552;-75
2023/06/20 08:16:59;;;;;;;10.45;5.88;;;20.80;99.90;;;;;;5044531;28;20061;-75
2023/06/20 08:19:25;;;;;;;9.48;5.65;;;20.90;99.90;;;;;;5045898;28;20245;-75
2023/06/20 08:21:50;;;;;;;8.15;5.45;;;20.90;99.90;;;;;;5045406;28;20052;-75
2023/06/20 08:24:16;;;;;;;11.40;6.35;;;21.00;99.90;;;;;;5045517;28;20407;-75
2023/06/20 08:26:42;;;;;;;9.55;5.63;;;21.00;99.90;;;;;;5043801;28;20036;-75
2023/06/20 08:29:08;;;;;;;8.40;5.72;;;21.10;99.90;;;;;;5044101;28;20522;-75
2023/06/20 08:31:36;;;;;;;8.68;5.15;;;21.10;99.90;;;;;;5045339;28;20045;-75
2023/06/20 08:34:05;;;;;;;11.57;7.15;;;21.20;99.90;;;;;;5044701;28;20629;-75
2023/06/20 08:36:34;;;;;;;12.57;6.82;;;21.20;99.90;;;;;;5042800;28;20045;-75
2023/06/20 08:39:01;;;;;;;10.55;6.55;;;21.30;99.90;;;;;;5044856;28;20660;-75
2023/06/20 08:41:27;;;;;;;10.75;6.28;;;21.30;99.90;;;;;;5044227;28;20045;-75
2023/06/20 08:43:53;;;;;;;8.15;5.50;;;21.30;99.90;;;;;;5044794;28;20033;-75
2023/06/20 08:46:19;;;;;;;10.43;6.07;;;21.40;99.90;;;;;;5043614;28;20431;-75
2023/06/20 08:48:46;;;;;;;9.68;6.28;;;21.40;99.90;;;;;;5045094;28;20041;-75
2023/06/20 08:51:15;;;;;;;10.95;6.13;;;21.40;99.90;;;;;;5044368;28;20071;-75
2023/06/20 08:53:46;;;;;;;8.45;6.05;;;21.40;99.90;;;;;;5044635;28;20128;-75
2023/06/20 08:56:13;;;;;;;8.07;5.93;;;21.50;99.90;;;;;;5043516;28;20438;-75
2023/06/20 08:58:39;;;;;;;11.07;5.78;;;21.50;99.90;;;;;;5043733;28;20523;-75
2023/06/20 09:01:07;;;;;;;7.82;6.22;;;21.60;99.90;;;;;;5042606;28;20059;-75
2023/06/20 09:03:33;;;;;;;10.00;5.18;;;21.60;99.90;;;;;;5043257;28;20134;-75
2023/06/20 09:05:59;;;;;;;10.30;5.95;;;21.70;99.90;;;;;;5044863;28;20049;-75
2023/06/20 09:08:43;;;;;;;9.00;6.05;;;21.70;99.90;;;;;;5043847;28;20103;-75
2023/06/20 09:11:10;;;;;;;11.43;5.93;;;21.80;99.90;;;;;;5043402;28;20123;-75
2023/06/20 09:13:36;;;;;;;8.70;5.90;;;21.90;99.90;;;;;;5042185;28;20080;-75
2023/06/20 09:16:09;;;;;;;8.73;5.50;;;21.90;99.90;;;;;;5042859;28;20667;-75
2023/06/20 09:18:36;;;;;;;9.93;7.10;;;22.00;99.90;;;;;;5043971;28;20479;-75
2023/06/20 09:21:02;;;;;;;7.55;5.25;;;22.10;99.90;;;;;;5038618;28;20099;-75
2023/06/20 09:23:29;;;;;;;9.82;5.53;;;22.20;99.90;;;;;;5044355;28;20043;-75
2023/06/20 09:25:56;;;;;;;8.15;5.78;;;22.30;99.90;;;;;;5043184;28;20036;-76
2023/06/20 09:28:22;;;;;;;9.13;5.75;;;22.30;99.90;;;;;;5042134;28;20118;-75
2023/06/20 09:30:48;;;;;;;9.18;6.03;;;22.40;99.90;;;;;;5043365;28;20044;-76
2023/06/20 09:33:15;;;;;;;7.93;5.40;;;22.40;99.90;;;;;;5042840;28;20052;-75
2023/06/20 09:35:41;;;;;;;8.07;5.68;;;22.40;99.90;;;;;;5044922;28;20029;-75
2023/06/20 09:38:07;;;;;;;9.13;5.60;;;22.40;99.90;;;;;;5042553;28;20052;-75
2023/06/20 09:40:43;;;;;;;7.55;5.13;;;22.50;99.90;;;;;;5044173;28;20232;-75
2023/06/20 09:43:09;;;;;;;8.23;5.50;;;22.50;99.90;;;;;;5041965;28;20037;-75
2023/06/20 09:45:35;;;;;;;9.10;6.13;;;22.50;99.90;;;;;;5042902;28;20040;-75
2023/06/20 09:48:03;;;;;;;10.38;5.97;;;22.60;99.90;;;;;;5043149;28;20040;-75
2023/06/20 09:50:31;;;;;;;7.90;5.80;;;22.60;99.90;;;;;;5044200;28;20102;-75
2023/06/20 09:53:15;;;;;;;7.50;5.55;;;22.70;99.90;;;;;;5043245;28;20110;-75
2023/06/20 09:55:41;;;;;;;8.93;5.53;;;22.80;99.90;;;;;;5046189;28;20060;-76
2023/06/20 09:58:08;;;;;;;9.38;5.90;;;22.80;99.90;;;;;;5052332;28;20110;-75
2023/06/20 10:00:36;;;;;;;9.15;5.85;;;22.90;99.90;;;;;;5057940;28;20036;-74
2023/06/20 10:03:07;;;;;;;9.15;5.78;;;23.00;99.90;;;;;;5056992;28;20399;-74
2023/06/20 10:05:34;;;;;;;8.63;6.43;;;23.10;99.90;;;;;;5051119;28;20083;-74
2023/06/20 10:08:00;;;;;;;7.68;5.40;;;23.10;99.90;;;;;;5043900;28;20082;-74
2023/06/20 10:10:26;;;;;;;8.45;6.07;;;23.10;99.90;;;;;;5044806;28;20041;-73
2023/06/20 10:12:53;;;;;;;9.35;6.47;;;23.30;99.90;;;;;;5043106;28;20129;-76
2023/06/20 10:15:20;;;;;;;12.52;5.70;;;23.30;99.90;;;;;;5032810;28;20380;-74
2023/06/20 10:17:47;;;;;;;7.82;4.70;;;23.30;99.90;;;;;;5019147;28;20045;-74
2023/06/20 10:20:28;;;;;;;8.27;6.00;;;23.40;99.90;;;;;;5060948;28;20101;-74
2023/06/20 10:22:58;;;;;;;8.40;6.30;;;23.40;99.90;;;;;;5062944;28;20050;-75
2023/06/20 10:25:25;;;;;;;8.13;5.47;;;23.40;99.90;;;;;;5061623;28;20040;-74
2023/06/20 10:28:01;;;;;;;8.80;6.28;;;23.50;99.90;;;;;;5039985;28;20083;-74
2023/06/20 10:30:56;;;;;;;8.40;5.18;;;23.60;99.90;;;;;;5044312;28;20327;-74
2023/06/20 10:33:34;;;;;;;7.85;5.18;;;23.60;99.90;;;;;;5040351;28;20102;-73
2023/06/20 10:36:07;;;;;;;8.52;5.07;;;23.60;99.90;;;;;;5029181;28;20534;-74
2023/06/20 10:38:37;;;;;;;10.63;5.10;;;23.70;99.90;;;;;;5045152;28;20512;-74
2023/06/20 10:41:12;;;;;;;9.45;4.93;;;23.70;99.90;;;;;;5042095;28;20041;-74
2023/06/20 10:43:51;;;;;;;9.25;6.28;;;23.70;99.90;;;;;;5036122;28;20305;-77
2023/06/20 10:46:18;;;;;;;10.38;6.15;;;23.80;99.90;;;;;;5044318;28;20491;-74
2023/06/20 10:48:44;;;;;;;6.63;4.68;;;23.80;99.90;;;;;;5038985;28;20505;-75
2023/06/20 10:51:11;;;;;;;8.25;5.30;;;23.80;99.90;;;;;;5042689;28;20044;-76
2023/06/20 10:53:36;;;;;;;5.95;4.65;;;23.80;99.90;;;;;;5046221;28;20066;-75
2023/06/20 10:56:02;;;;;;;7.30;5.78;;;23.90;99.90;;;;;;5036918;28;20052;-75
2023/06/20 10:58:28;;;;;;;8.15;5.50;;;23.90;99.90;;;;;;5037638;28;20095;-77
2023/06/20 11:00:54;;;;;;;10.60;6.55;;;24.00;99.90;;;;;;5045811;28;20044;-76
2023/06/20 11:03:21;;;;;;;7.65;5.60;;;24.00;99.90;;;;;;5059372;28;20045;-77
2023/06/20 11:05:51;;;;;;;8.02;5.28;;;24.10;99.90;;;;;;5050531;28;20052;-76
2023/06/20 11:08:27;;;;;;;8.63;5.90;;;24.10;99.90;;;;;;5051442;28;20091;-76
2023/06/20 11:10:53;;;;;;;6.82;4.85;;;24.10;99.90;;;;;;5048429;28;20063;-75
2023/06/20 11:13:20;;;;;;;7.00;5.28;;;24.10;99.90;;;;;;5049024;28;20187;-74
2023/06/20 11:15:45;;;;;;;8.18;5.22;;;24.20;99.90;;;;;;5047140;28;20119;-74
2023/06/20 11:18:11;;;;;;;7.82;4.80;;;24.20;99.90;;;;;;5045729;28;20129;-76
2023/06/20 11:20:39;;;;;;;5.65;4.75;;;24.30;99.90;;;;;;5045973;28;20044;-74
2023/06/20 11:23:07;;;;;;;6.93;4.50;;;24.30;99.90;;;;;;5046979;28;20041;-74
2023/06/20 11:25:34;;;;;;;5.53;4.63;;;24.40;99.90;;;;;;5040871;28;20095;-75
2023/06/20 11:28:14;;;;;;;4.40;4.00;;;24.50;99.90;;;;;;5046196;28;20094;-76
2023/06/20 11:30:41;;;;;;;4.25;3.78;;;24.50;99.90;;;;;;5029785;28;20041;-77
2023/06/20 11:33:09;;;;;;;5.45;4.32;;;24.60;99.90;;;;;;5045622;28;20164;-75
2023/06/20 11:35:41;;;;;;;6.95;3.95;;;24.70;99.90;;;;;;5046418;28;20119;-76
2023/06/20 11:38:09;;;;;;;6.65;4.82;;;24.70;99.90;;;;;;5051043;28;20471;-75
2023/06/20 11:40:36;;;;;;;6.00;4.32;;;24.70;99.90;;;;;;5041453;28;20151;-75
2023/06/20 11:43:01;;;;;;;5.18;4.03;;;24.80;99.90;;;;;;5046818;28;20078;-76
2023/06/20 11:45:28;;;;;;;4.60;3.92;;;24.90;99.90;;;;;;5066237;28;20036;-75
2023/06/20 11:48:14;;;;;;;5.50;4.70;;;24.90;99.90;;;;;;5046937;28;20387;-74
2023/06/20 11:50:42;;;;;;;4.78;3.63;;;24.90;99.90;;;;;;5048702;28;20040;-75
2023/06/20 11:53:21;;;;;;;4.55;3.78;;;25.00;99.90;;;;;;5063994;28;20048;-75
2023/06/20 11:55:48;;;;;;;4.20;3.80;;;25.00;99.90;;;;;;5027485;28;20037;-75
2023/06/20 11:58:15;;;;;;;5.45;4.53;;;25.10;99.90;;;;;;5036912;28;20041;-74
2023/06/20 12:00:40;;;;;;;5.47;3.90;;;25.10;99.90;;;;;;5051493;28;20037;-75
2023/06/20 12:03:12;;;;;;;6.03;4.75;;;25.20;99.90;;;;;;5045573;28;20106;-75
2023/06/20 12:05:38;;;;;;;4.72;4.00;;;25.20;99.90;;;;;;5062913;28;20502;-73
2023/06/20 12:08:04;;;;;;;6.90;4.35;;;25.30;99.90;;;;;;5057130;28;20055;-75
2023/06/20 12:10:29;;;;;;;5.05;4.35;;;25.30;99.90;;;;;;5044758;28;20131;-75
2023/06/20 12:12:55;;;;;;;4.30;3.85;;;25.40;99.90;;;;;;5045161;28;20494;-75
2023/06/20 12:15:21;;;;;;;4.43;3.45;;;25.40;99.90;;;;;;5044577;28;20033;-75
2023/06/20 12:17:47;;;;;;;4.47;3.58;;;25.40;99.90;;;;;;5044921;28;20067;-75
2023/06/20 12:20:13;;;;;;;4.30;3.85;;;25.50;99.90;;;;;;5055399;28;20066;-75
2023/06/20 12:22:38;;;;;;;4.07;3.67;;;25.50;99.90;;;;;;5045539;28;20668;-75
2023/06/20 12:25:04;;;;;;;4.70;3.25;;;25.50;99.90;;;;;;5026223;28;20076;-75
2023/06/20 12:27:30;;;;;;;6.28;4.10;;;25.50;99.90;;;;;;5052862;28;20044;-76
2023/06/20 12:29:55;;;;;;;5.90;3.42;;;25.50;99.90;;;;;;5051117;28;20387;-75
2023/06/20 12:32:21;;;;;;;7.70;4.72;;;25.50;99.90;;;;;;5063872;28;20052;-75
2023/06/20 12:34:47;;;;;;;5.07;3.65;;;25.50;99.90;;;;;;5051208;28;20383;-75
2023/06/20 12:37:12;;;;;;;5.68;4.00;;;25.60;99.90;;;;;;5046160;28;20136;-75
2023/06/20 12:39:39;;;;;;;5.47;3.88;;;25.70;99.90;;;;;;5049380;28;20037;-75
2023/06/20 12:42:05;;;;;;;6.13;3.78;;;25.70;99.90;;;;;;5045773;28;20079;-75
2023/06/20 12:44:30;;;;;;;6.95;4.93;;;25.80;99.90;;;;;;5026722;28;20076;-75
2023/06/20 12:46:56;;;;;;;8.00;4.15;;;25.80;99.90;;;;;;5045156;28;20508;-75